sensor_id;sensor_type;location;lat;lon;timestamp;P1;durP1;ratioP1;P2;durP2;ratioP2
45618;SDS011;31343;47.520;19.144;2022-10-24T00:00:32;15.25;;;10.20;;
45618;SDS011;31343;47.520;19.144;2022-10-24T00:02:57;15.07;;;9.73;;
45618;SDS011;31343;47.520;19.144;2022-10-24T00:05:24;13.25;;;8.77;;
45618;SDS011;31343;47.520;19.144;2022-10-24T00:07:50;15.43;;;9.82;;
45618;SDS011;31343;47.520;19.144;2022-10-24T00:10:16;13.43;;;9.30;;
45618;SDS011;31343;47.520;19.144;2022-10-24T00:12:42;17.95;;;11.23;;
45618;SDS011;31343;47.520;19.144;2022-10-24T00:15:09;16.23;;;10.48;;
45618;SDS011;31343;47.520;19.144;2022-10-24T00:17:35;14.25;;;9.68;;
45618;SDS011;31343;47.520;19.144;2022-10-24T00:20:02;16.05;;;10.00;;
45618;SDS011;31343;47.520;19.144;2022-10-24T00:22:30;13.93;;;9.05;;
45618;SDS011;31343;47.520;19.144;2022-10-24T00:24:55;16.58;;;10.38;;
45618;SDS011;31343;47.520;19.144;2022-10-24T00:27:21;16.77;;;10.30;;
45618;SDS011;31343;47.520;19.144;2022-10-24T00:29:47;16.15;;;11.05;;
45618;SDS011;31343;47.520;19.144;2022-10-24T00:32:14;15.90;;;10.25;;
45618;SDS011;31343;47.520;19.144;2022-10-24T00:34:39;15.60;;;9.82;;
45618;SDS011;31343;47.520;19.144;2022-10-24T00:37:06;14.57;;;8.95;;
45618;SDS011;31343;47.520;19.144;2022-10-24T00:39:32;13.95;;;9.73;;
45618;SDS011;31343;47.520;19.144;2022-10-24T00:41:58;16.75;;;10.10;;
45618;SDS011;31343;47.520;19.144;2022-10-24T00:44:29;16.63;;;9.77;;
45618;SDS011;31343;47.520;19.144;2022-10-24T00:52:34;14.77;;;8.80;;
45618;SDS011;31343;47.520;19.144;2022-10-24T00:55:04;14.77;;;9.38;;
45618;SDS011;31343;47.520;19.144;2022-10-24T00:57:33;14.75;;;8.63;;
45618;SDS011;31343;47.520;19.144;2022-10-24T01:00:12;17.77;;;9.77;;
45618;SDS011;31343;47.520;19.144;2022-10-24T01:02:41;13.38;;;8.45;;
45618;SDS011;31343;47.520;19.144;2022-10-24T01:05:07;14.45;;;8.73;;
45618;SDS011;31343;47.520;19.144;2022-10-24T01:07:38;17.08;;;9.15;;
45618;SDS011;31343;47.520;19.144;2022-10-24T01:10:22;16.00;;;10.05;;
45618;SDS011;31343;47.520;19.144;2022-10-24T01:16:04;15.73;;;9.02;;
45618;SDS011;31343;47.520;19.144;2022-10-24T01:18:52;13.38;;;9.65;;
45618;SDS011;31343;47.520;19.144;2022-10-24T01:21:32;16.83;;;10.35;;
45618;SDS011;31343;47.520;19.144;2022-10-24T01:30:13;14.32;;;9.75;;
45618;SDS011;31343;47.520;19.144;2022-10-24T01:38:04;16.17;;;10.02;;
45618;SDS011;31343;47.520;19.144;2022-10-24T01:43:17;13.00;;;9.35;;
45618;SDS011;31343;47.520;19.144;2022-10-24T01:45:48;14.57;;;10.10;;
45618;SDS011;31343;47.520;19.144;2022-10-24T01:48:20;16.35;;;10.10;;
45618;SDS011;31343;47.520;19.144;2022-10-24T01:50:49;15.07;;;9.73;;
45618;SDS011;31343;47.520;19.144;2022-10-24T01:53:18;16.13;;;10.30;;
45618;SDS011;31343;47.520;19.144;2022-10-24T01:55:46;16.13;;;9.93;;
45618;SDS011;31343;47.520;19.144;2022-10-24T01:58:13;14.63;;;9.38;;
45618;SDS011;31343;47.520;19.144;2022-10-24T02:00:39;13.88;;;10.68;;
45618;SDS011;31343;47.520;19.144;2022-10-24T02:03:26;14.60;;;9.85;;
45618;SDS011;31343;47.520;19.144;2022-10-24T02:06:12;13.63;;;9.27;;
45618;SDS011;31343;47.520;19.144;2022-10-24T02:08:45;14.63;;;10.38;;
45618;SDS011;31343;47.520;19.144;2022-10-24T02:11:15;15.07;;;9.90;;
45618;SDS011;31343;47.520;19.144;2022-10-24T02:16:28;14.55;;;9.27;;
45618;SDS011;31343;47.520;19.144;2022-10-24T02:18:54;14.40;;;9.50;;
45618;SDS011;31343;47.520;19.144;2022-10-24T02:32:09;15.15;;;9.68;;
45618;SDS011;31343;47.520;19.144;2022-10-24T02:34:49;15.50;;;9.82;;
45618;SDS011;31343;47.520;19.144;2022-10-24T02:37:15;18.92;;;11.32;;
45618;SDS011;31343;47.520;19.144;2022-10-24T02:39:43;15.10;;;10.25;;
45618;SDS011;31343;47.520;19.144;2022-10-24T02:42:11;17.30;;;11.10;;
45618;SDS011;31343;47.520;19.144;2022-10-24T02:44:39;17.35;;;10.25;;
45618;SDS011;31343;47.520;19.144;2022-10-24T02:47:06;15.63;;;9.95;;
45618;SDS011;31343;47.520;19.144;2022-10-24T02:49:35;18.23;;;11.13;;
45618;SDS011;31343;47.520;19.144;2022-10-24T02:52:01;20.75;;;11.95;;
45618;SDS011;31343;47.520;19.144;2022-10-24T02:54:27;17.02;;;10.82;;
45618;SDS011;31343;47.520;19.144;2022-10-24T02:56:55;18.02;;;11.27;;
45618;SDS011;31343;47.520;19.144;2022-10-24T02:59:26;16.83;;;12.23;;
45618;SDS011;31343;47.520;19.144;2022-10-24T03:01:52;18.50;;;11.73;;
45618;SDS011;31343;47.520;19.144;2022-10-24T03:04:18;20.00;;;12.80;;
45618;SDS011;31343;47.520;19.144;2022-10-24T03:06:44;19.27;;;12.13;;
45618;SDS011;31343;47.520;19.144;2022-10-24T03:09:09;17.63;;;11.43;;
45618;SDS011;31343;47.520;19.144;2022-10-24T03:11:36;18.40;;;12.38;;
45618;SDS011;31343;47.520;19.144;2022-10-24T03:14:02;19.77;;;11.85;;
45618;SDS011;31343;47.520;19.144;2022-10-24T03:16:28;18.42;;;12.65;;
45618;SDS011;31343;47.520;19.144;2022-10-24T03:18:54;22.80;;;13.98;;
45618;SDS011;31343;47.520;19.144;2022-10-24T03:21:20;21.40;;;13.52;;
45618;SDS011;31343;47.520;19.144;2022-10-24T03:23:46;17.17;;;12.75;;
45618;SDS011;31343;47.520;19.144;2022-10-24T03:26:12;21.27;;;13.80;;
45618;SDS011;31343;47.520;19.144;2022-10-24T03:28:37;29.27;;;14.25;;
45618;SDS011;31343;47.520;19.144;2022-10-24T03:31:05;25.17;;;15.02;;
45618;SDS011;31343;47.520;19.144;2022-10-24T03:33:31;22.25;;;13.07;;
45618;SDS011;31343;47.520;19.144;2022-10-24T03:35:57;23.15;;;15.13;;
45618;SDS011;31343;47.520;19.144;2022-10-24T03:38:23;22.88;;;13.65;;
45618;SDS011;31343;47.520;19.144;2022-10-24T03:40:50;21.92;;;13.13;;
45618;SDS011;31343;47.520;19.144;2022-10-24T03:43:16;21.92;;;13.68;;
45618;SDS011;31343;47.520;19.144;2022-10-24T03:45:43;21.83;;;14.98;;
45618;SDS011;31343;47.520;19.144;2022-10-24T03:48:09;24.98;;;14.98;;
45618;SDS011;31343;47.520;19.144;2022-10-24T03:50:35;25.10;;;15.90;;
45618;SDS011;31343;47.520;19.144;2022-10-24T03:53:01;24.88;;;15.23;;
45618;SDS011;31343;47.520;19.144;2022-10-24T03:55:28;25.40;;;14.60;;
45618;SDS011;31343;47.520;19.144;2022-10-24T03:57:54;24.15;;;14.68;;
45618;SDS011;31343;47.520;19.144;2022-10-24T04:00:20;26.38;;;15.63;;
45618;SDS011;31343;47.520;19.144;2022-10-24T04:02:47;23.70;;;14.55;;
45618;SDS011;31343;47.520;19.144;2022-10-24T04:05:15;25.13;;;14.45;;
45618;SDS011;31343;47.520;19.144;2022-10-24T04:07:41;22.30;;;13.45;;
45618;SDS011;31343;47.520;19.144;2022-10-24T04:10:07;25.70;;;15.80;;
45618;SDS011;31343;47.520;19.144;2022-10-24T04:12:33;22.27;;;14.68;;
45618;SDS011;31343;47.520;19.144;2022-10-24T04:14:59;24.98;;;14.38;;
45618;SDS011;31343;47.520;19.144;2022-10-24T04:17:24;25.15;;;15.57;;
45618;SDS011;31343;47.520;19.144;2022-10-24T04:19:50;25.20;;;14.52;;
45618;SDS011;31343;47.520;19.144;2022-10-24T04:22:16;25.30;;;14.63;;
45618;SDS011;31343;47.520;19.144;2022-10-24T04:24:43;25.02;;;14.93;;
45618;SDS011;31343;47.520;19.144;2022-10-24T04:27:08;28.15;;;15.55;;
45618;SDS011;31343;47.520;19.144;2022-10-24T04:29:35;26.10;;;14.63;;
45618;SDS011;31343;47.520;19.144;2022-10-24T04:32:01;27.10;;;15.20;;
45618;SDS011;31343;47.520;19.144;2022-10-24T04:34:27;25.38;;;15.13;;
45618;SDS011;31343;47.520;19.144;2022-10-24T04:36:53;26.33;;;14.73;;
45618;SDS011;31343;47.520;19.144;2022-10-24T04:39:19;28.58;;;15.57;;
45618;SDS011;31343;47.520;19.144;2022-10-24T04:41:45;24.90;;;14.15;;
45618;SDS011;31343;47.520;19.144;2022-10-24T04:44:11;29.42;;;15.52;;
45618;SDS011;31343;47.520;19.144;2022-10-24T04:46:37;25.58;;;15.20;;
45618;SDS011;31343;47.520;19.144;2022-10-24T04:49:03;27.13;;;14.63;;
45618;SDS011;31343;47.520;19.144;2022-10-24T04:51:30;28.55;;;16.02;;
45618;SDS011;31343;47.520;19.144;2022-10-24T04:53:55;23.75;;;14.05;;
45618;SDS011;31343;47.520;19.144;2022-10-24T04:56:21;30.00;;;16.35;;
45618;SDS011;31343;47.520;19.144;2022-10-24T04:58:50;26.60;;;15.40;;
45618;SDS011;31343;47.520;19.144;2022-10-24T05:01:16;25.98;;;14.02;;
45618;SDS011;31343;47.520;19.144;2022-10-24T05:03:42;25.70;;;15.05;;
45618;SDS011;31343;47.520;19.144;2022-10-24T05:06:09;28.95;;;15.10;;
45618;SDS011;31343;47.520;19.144;2022-10-24T05:08:35;27.15;;;15.18;;
45618;SDS011;31343;47.520;19.144;2022-10-24T05:11:02;26.88;;;15.20;;
45618;SDS011;31343;47.520;19.144;2022-10-24T05:13:28;25.67;;;13.80;;
45618;SDS011;31343;47.520;19.144;2022-10-24T05:15:53;26.58;;;15.20;;
45618;SDS011;31343;47.520;19.144;2022-10-24T05:18:21;26.05;;;14.15;;
45618;SDS011;31343;47.520;19.144;2022-10-24T05:20:47;27.67;;;15.68;;
45618;SDS011;31343;47.520;19.144;2022-10-24T05:23:12;26.00;;;14.25;;
45618;SDS011;31343;47.520;19.144;2022-10-24T05:25:38;26.55;;;14.93;;
45618;SDS011;31343;47.520;19.144;2022-10-24T05:28:04;25.50;;;13.45;;
45618;SDS011;31343;47.520;19.144;2022-10-24T05:30:29;24.60;;;14.90;;
45618;SDS011;31343;47.520;19.144;2022-10-24T05:32:55;24.80;;;15.05;;
45618;SDS011;31343;47.520;19.144;2022-10-24T05:35:21;26.23;;;14.65;;
45618;SDS011;31343;47.520;19.144;2022-10-24T05:37:46;29.17;;;14.05;;
45618;SDS011;31343;47.520;19.144;2022-10-24T05:40:12;24.95;;;12.60;;
45618;SDS011;31343;47.520;19.144;2022-10-24T05:42:39;26.90;;;14.20;;
45618;SDS011;31343;47.520;19.144;2022-10-24T05:45:05;26.42;;;14.27;;
45618;SDS011;31343;47.520;19.144;2022-10-24T05:47:32;25.27;;;13.82;;
45618;SDS011;31343;47.520;19.144;2022-10-24T05:49:59;25.90;;;14.18;;
45618;SDS011;31343;47.520;19.144;2022-10-24T05:52:25;25.40;;;13.75;;
45618;SDS011;31343;47.520;19.144;2022-10-24T05:54:51;23.48;;;12.75;;
45618;SDS011;31343;47.520;19.144;2022-10-24T05:57:16;25.10;;;12.35;;
45618;SDS011;31343;47.520;19.144;2022-10-24T05:59:42;27.52;;;13.65;;
45618;SDS011;31343;47.520;19.144;2022-10-24T06:02:11;20.88;;;12.68;;
45618;SDS011;31343;47.520;19.144;2022-10-24T06:04:42;22.58;;;11.13;;
45618;SDS011;31343;47.520;19.144;2022-10-24T06:07:08;24.75;;;12.27;;
45618;SDS011;31343;47.520;19.144;2022-10-24T06:09:33;27.00;;;12.57;;
45618;SDS011;31343;47.520;19.144;2022-10-24T06:11:59;25.88;;;12.73;;
45618;SDS011;31343;47.520;19.144;2022-10-24T06:14:26;24.15;;;13.75;;
45618;SDS011;31343;47.520;19.144;2022-10-24T06:16:51;28.05;;;13.98;;
45618;SDS011;31343;47.520;19.144;2022-10-24T06:19:17;30.73;;;14.55;;
45618;SDS011;31343;47.520;19.144;2022-10-24T06:21:47;24.35;;;12.60;;
45618;SDS011;31343;47.520;19.144;2022-10-24T06:24:14;24.40;;;13.25;;
45618;SDS011;31343;47.520;19.144;2022-10-24T06:26:40;25.52;;;13.43;;
45618;SDS011;31343;47.520;19.144;2022-10-24T06:29:06;28.25;;;13.45;;
45618;SDS011;31343;47.520;19.144;2022-10-24T06:31:31;26.08;;;13.20;;
45618;SDS011;31343;47.520;19.144;2022-10-24T06:33:59;26.08;;;14.02;;
45618;SDS011;31343;47.520;19.144;2022-10-24T06:36:26;26.80;;;14.32;;
45618;SDS011;31343;47.520;19.144;2022-10-24T06:38:52;28.23;;;13.82;;
45618;SDS011;31343;47.520;19.144;2022-10-24T06:41:18;24.42;;;13.80;;
45618;SDS011;31343;47.520;19.144;2022-10-24T06:43:44;27.15;;;14.18;;
45618;SDS011;31343;47.520;19.144;2022-10-24T06:46:12;30.30;;;14.80;;
45618;SDS011;31343;47.520;19.144;2022-10-24T06:48:39;27.73;;;14.98;;
45618;SDS011;31343;47.520;19.144;2022-10-24T06:51:05;26.58;;;13.27;;
45618;SDS011;31343;47.520;19.144;2022-10-24T06:53:31;28.48;;;14.30;;
45618;SDS011;31343;47.520;19.144;2022-10-24T06:56:00;29.75;;;14.05;;
45618;SDS011;31343;47.520;19.144;2022-10-24T06:58:31;27.95;;;14.43;;
45618;SDS011;31343;47.520;19.144;2022-10-24T07:00:58;28.63;;;14.30;;
45618;SDS011;31343;47.520;19.144;2022-10-24T07:03:24;25.73;;;13.23;;
45618;SDS011;31343;47.520;19.144;2022-10-24T07:05:49;30.00;;;15.50;;
45618;SDS011;31343;47.520;19.144;2022-10-24T07:08:15;22.67;;;12.25;;
45618;SDS011;31343;47.520;19.144;2022-10-24T07:10:42;27.17;;;14.52;;
45618;SDS011;31343;47.520;19.144;2022-10-24T07:13:08;30.02;;;13.43;;
45618;SDS011;31343;47.520;19.144;2022-10-24T07:15:33;22.65;;;12.57;;
45618;SDS011;31343;47.520;19.144;2022-10-24T07:17:59;26.98;;;14.13;;
45618;SDS011;31343;47.520;19.144;2022-10-24T07:20:25;29.42;;;13.93;;
45618;SDS011;31343;47.520;19.144;2022-10-24T07:22:51;28.50;;;15.02;;
45618;SDS011;31343;47.520;19.144;2022-10-24T07:25:16;27.15;;;15.32;;
45618;SDS011;31343;47.520;19.144;2022-10-24T07:27:42;31.15;;;15.35;;
45618;SDS011;31343;47.520;19.144;2022-10-24T07:30:08;30.98;;;14.50;;
45618;SDS011;31343;47.520;19.144;2022-10-24T07:32:39;28.77;;;16.23;;
45618;SDS011;31343;47.520;19.144;2022-10-24T07:35:09;28.52;;;16.60;;
45618;SDS011;31343;47.520;19.144;2022-10-24T07:37:37;29.45;;;17.80;;
45618;SDS011;31343;47.520;19.144;2022-10-24T07:40:04;29.85;;;16.52;;
45618;SDS011;31343;47.520;19.144;2022-10-24T07:42:30;26.63;;;14.65;;
45618;SDS011;31343;47.520;19.144;2022-10-24T07:44:56;24.48;;;13.52;;
45618;SDS011;31343;47.520;19.144;2022-10-24T07:47:22;23.98;;;14.00;;
45618;SDS011;31343;47.520;19.144;2022-10-24T07:49:48;21.13;;;13.23;;
45618;SDS011;31343;47.520;19.144;2022-10-24T07:52:14;27.67;;;12.82;;
45618;SDS011;31343;47.520;19.144;2022-10-24T07:54:40;26.70;;;12.82;;
45618;SDS011;31343;47.520;19.144;2022-10-24T07:57:06;25.40;;;13.40;;
45618;SDS011;31343;47.520;19.144;2022-10-24T07:59:32;21.70;;;13.35;;
45618;SDS011;31343;47.520;19.144;2022-10-24T08:01:58;24.48;;;12.95;;
45618;SDS011;31343;47.520;19.144;2022-10-24T08:04:23;26.23;;;12.48;;
45618;SDS011;31343;47.520;19.144;2022-10-24T08:06:49;21.83;;;12.38;;
45618;SDS011;31343;47.520;19.144;2022-10-24T08:09:15;24.23;;;12.65;;
45618;SDS011;31343;47.520;19.144;2022-10-24T08:11:42;24.02;;;13.23;;
45618;SDS011;31343;47.520;19.144;2022-10-24T08:14:07;26.98;;;12.80;;
45618;SDS011;31343;47.520;19.144;2022-10-24T08:16:33;19.98;;;11.82;;
45618;SDS011;31343;47.520;19.144;2022-10-24T08:19:00;24.60;;;11.82;;
45618;SDS011;31343;47.520;19.144;2022-10-24T08:21:25;22.58;;;12.25;;
45618;SDS011;31343;47.520;19.144;2022-10-24T08:23:52;21.05;;;11.43;;
45618;SDS011;31343;47.520;19.144;2022-10-24T08:26:20;24.40;;;12.40;;
45618;SDS011;31343;47.520;19.144;2022-10-24T08:28:47;21.88;;;11.40;;
45618;SDS011;31343;47.520;19.144;2022-10-24T08:31:14;21.30;;;12.98;;
45618;SDS011;31343;47.520;19.144;2022-10-24T08:33:42;20.88;;;11.98;;
45618;SDS011;31343;47.520;19.144;2022-10-24T08:36:13;23.60;;;11.60;;
45618;SDS011;31343;47.520;19.144;2022-10-24T08:38:43;19.48;;;11.75;;
45618;SDS011;31343;47.520;19.144;2022-10-24T08:41:12;20.33;;;10.35;;
45618;SDS011;31343;47.520;19.144;2022-10-24T08:43:41;20.52;;;11.57;;
45618;SDS011;31343;47.520;19.144;2022-10-24T08:48:47;18.58;;;11.10;;
45618;SDS011;31343;47.520;19.144;2022-10-24T08:53:49;20.88;;;11.40;;
45618;SDS011;31343;47.520;19.144;2022-10-24T08:56:17;17.80;;;11.23;;
45618;SDS011;31343;47.520;19.144;2022-10-24T08:58:44;20.58;;;11.95;;
45618;SDS011;31343;47.520;19.144;2022-10-24T09:01:54;22.85;;;12.63;;
45618;SDS011;31343;47.520;19.144;2022-10-24T09:04:06;24.75;;;11.07;;
45618;SDS011;31343;47.520;19.144;2022-10-24T09:06:35;21.17;;;11.50;;
45618;SDS011;31343;47.520;19.144;2022-10-24T09:09:05;20.92;;;11.05;;
45618;SDS011;31343;47.520;19.144;2022-10-24T09:12:14;21.30;;;10.57;;
45618;SDS011;31343;47.520;19.144;2022-10-24T09:14:42;19.85;;;11.80;;
45618;SDS011;31343;47.520;19.144;2022-10-24T09:19:51;18.00;;;10.52;;
45618;SDS011;31343;47.520;19.144;2022-10-24T09:22:20;20.33;;;12.48;;
45618;SDS011;31343;47.520;19.144;2022-10-24T09:24:49;25.30;;;12.50;;
45618;SDS011;31343;47.520;19.144;2022-10-24T09:27:26;27.88;;;12.63;;
45618;SDS011;31343;47.520;19.144;2022-10-24T09:29:55;20.10;;;11.93;;
45618;SDS011;31343;47.520;19.144;2022-10-24T09:32:26;19.83;;;11.32;;
45618;SDS011;31343;47.520;19.144;2022-10-24T09:34:57;18.88;;;11.10;;
45618;SDS011;31343;47.520;19.144;2022-10-24T09:40:19;19.65;;;11.30;;
45618;SDS011;31343;47.520;19.144;2022-10-24T09:48:50;21.67;;;10.35;;
45618;SDS011;31343;47.520;19.144;2022-10-24T09:51:41;20.27;;;12.55;;
45618;SDS011;31343;47.520;19.144;2022-10-24T09:56:46;23.58;;;11.95;;
45618;SDS011;31343;47.520;19.144;2022-10-24T10:02:41;20.27;;;12.23;;
45618;SDS011;31343;47.520;19.144;2022-10-24T10:07:27;23.20;;;12.48;;
45618;SDS011;31343;47.520;19.144;2022-10-24T10:09:58;22.35;;;11.35;;
45618;SDS011;31343;47.520;19.144;2022-10-24T10:15:16;22.23;;;11.88;;
45618;SDS011;31343;47.520;19.144;2022-10-24T10:17:49;22.70;;;11.53;;
45618;SDS011;31343;47.520;19.144;2022-10-24T10:20:26;20.52;;;11.25;;
45618;SDS011;31343;47.520;19.144;2022-10-24T10:22:52;20.52;;;11.65;;
45618;SDS011;31343;47.520;19.144;2022-10-24T10:25:29;24.15;;;11.70;;
45618;SDS011;31343;47.520;19.144;2022-10-24T10:27:56;21.40;;;12.55;;
45618;SDS011;31343;47.520;19.144;2022-10-24T10:30:23;19.25;;;11.30;;
45618;SDS011;31343;47.520;19.144;2022-10-24T10:38:32;23.52;;;11.60;;
45618;SDS011;31343;47.520;19.144;2022-10-24T10:43:57;24.85;;;15.10;;
45618;SDS011;31343;47.520;19.144;2022-10-24T10:46:43;22.80;;;13.70;;
45618;SDS011;31343;47.520;19.144;2022-10-24T10:51:57;19.98;;;11.93;;
45618;SDS011;31343;47.520;19.144;2022-10-24T10:57:28;21.25;;;12.68;;
45618;SDS011;31343;47.520;19.144;2022-10-24T11:00:29;26.75;;;13.40;;
45618;SDS011;31343;47.520;19.144;2022-10-24T11:06:03;29.23;;;16.42;;
45618;SDS011;31343;47.520;19.144;2022-10-24T11:11:56;34.03;;;16.25;;
45618;SDS011;31343;47.520;19.144;2022-10-24T11:20:21;31.10;;;17.73;;
45618;SDS011;31343;47.520;19.144;2022-10-24T11:23:06;26.92;;;13.48;;
45618;SDS011;31343;47.520;19.144;2022-10-24T11:26:04;30.65;;;14.95;;
45618;SDS011;31343;47.520;19.144;2022-10-24T11:28:46;30.75;;;15.05;;
45618;SDS011;31343;47.520;19.144;2022-10-24T11:37:02;27.73;;;15.65;;
45618;SDS011;31343;47.520;19.144;2022-10-24T11:39:39;30.75;;;15.90;;
45618;SDS011;31343;47.520;19.144;2022-10-24T11:42:35;26.83;;;15.30;;
45618;SDS011;31343;47.520;19.144;2022-10-24T11:45:07;28.52;;;16.92;;
45618;SDS011;31343;47.520;19.144;2022-10-24T11:50:24;34.22;;;16.52;;
45618;SDS011;31343;47.520;19.144;2022-10-24T11:52:56;30.15;;;16.83;;
45618;SDS011;31343;47.520;19.144;2022-10-24T11:55:27;33.60;;;18.52;;
45618;SDS011;31343;47.520;19.144;2022-10-24T12:00:33;31.30;;;15.77;;
45618;SDS011;31343;47.520;19.144;2022-10-24T12:19:53;28.17;;;15.20;;
45618;SDS011;31343;47.520;19.144;2022-10-24T12:22:21;32.00;;;16.85;;
45618;SDS011;31343;47.520;19.144;2022-10-24T12:25:06;34.00;;;17.83;;
45618;SDS011;31343;47.520;19.144;2022-10-24T12:28:05;34.67;;;16.65;;
45618;SDS011;31343;47.520;19.144;2022-10-24T12:30:41;34.53;;;17.65;;
45618;SDS011;31343;47.520;19.144;2022-10-24T12:33:19;35.97;;;18.83;;
45618;SDS011;31343;47.520;19.144;2022-10-24T12:35:50;39.55;;;19.30;;
45618;SDS011;31343;47.520;19.144;2022-10-24T12:43:35;31.55;;;17.58;;
45618;SDS011;31343;47.520;19.144;2022-10-24T12:48:42;33.70;;;17.45;;
45618;SDS011;31343;47.520;19.144;2022-10-24T12:51:29;36.95;;;19.25;;
45618;SDS011;31343;47.520;19.144;2022-10-24T12:59:25;32.35;;;18.00;;
45618;SDS011;31343;47.520;19.144;2022-10-24T13:07:45;30.50;;;16.33;;
45618;SDS011;31343;47.520;19.144;2022-10-24T13:18:48;32.13;;;19.27;;
45618;SDS011;31343;47.520;19.144;2022-10-24T13:27:26;29.77;;;17.02;;
45618;SDS011;31343;47.520;19.144;2022-10-24T13:31:54;33.90;;;17.55;;
45618;SDS011;31343;47.520;19.144;2022-10-24T13:37:22;32.55;;;16.83;;
45618;SDS011;31343;47.520;19.144;2022-10-24T13:42:36;33.15;;;17.35;;
45618;SDS011;31343;47.520;19.144;2022-10-24T13:45:18;32.38;;;16.90;;
45618;SDS011;31343;47.520;19.144;2022-10-24T13:48:24;39.80;;;17.77;;
45618;SDS011;31343;47.520;19.144;2022-10-24T13:51:02;32.08;;;17.88;;
45618;SDS011;31343;47.520;19.144;2022-10-24T13:53:45;34.30;;;17.58;;
45618;SDS011;31343;47.520;19.144;2022-10-24T13:56:17;34.83;;;17.15;;
45618;SDS011;31343;47.520;19.144;2022-10-24T13:58:44;32.92;;;18.25;;
45618;SDS011;31343;47.520;19.144;2022-10-24T14:01:15;33.80;;;18.02;;
45618;SDS011;31343;47.520;19.144;2022-10-24T14:03:47;27.02;;;16.50;;
45618;SDS011;31343;47.520;19.144;2022-10-24T14:06:14;32.75;;;19.08;;
45618;SDS011;31343;47.520;19.144;2022-10-24T14:08:44;32.97;;;17.25;;
45618;SDS011;31343;47.520;19.144;2022-10-24T14:11:15;28.83;;;16.00;;
45618;SDS011;31343;47.520;19.144;2022-10-24T14:13:48;33.88;;;18.08;;
45618;SDS011;31343;47.520;19.144;2022-10-24T14:16:16;29.40;;;16.45;;
45618;SDS011;31343;47.520;19.144;2022-10-24T14:18:49;34.30;;;16.48;;
45618;SDS011;31343;47.520;19.144;2022-10-24T14:21:18;30.95;;;17.35;;
45618;SDS011;31343;47.520;19.144;2022-10-24T14:23:58;34.22;;;16.48;;
45618;SDS011;31343;47.520;19.144;2022-10-24T14:26:25;35.33;;;16.65;;
45618;SDS011;31343;47.520;19.144;2022-10-24T14:28:56;28.70;;;15.75;;
45618;SDS011;31343;47.520;19.144;2022-10-24T14:31:29;33.10;;;17.52;;
45618;SDS011;31343;47.520;19.144;2022-10-24T14:33:58;28.17;;;16.27;;
45618;SDS011;31343;47.520;19.144;2022-10-24T14:36:29;26.85;;;14.90;;
45618;SDS011;31343;47.520;19.144;2022-10-24T14:38:57;33.80;;;18.10;;
45618;SDS011;31343;47.520;19.144;2022-10-24T14:41:28;26.95;;;14.65;;
45618;SDS011;31343;47.520;19.144;2022-10-24T14:43:57;29.40;;;16.00;;
45618;SDS011;31343;47.520;19.144;2022-10-24T14:51:42;27.88;;;14.98;;
45618;SDS011;31343;47.520;19.144;2022-10-24T14:54:14;26.67;;;15.18;;
45618;SDS011;31343;47.520;19.144;2022-10-24T14:56:43;29.33;;;16.85;;
45618;SDS011;31343;47.520;19.144;2022-10-24T15:02:01;22.42;;;14.70;;
45618;SDS011;31343;47.520;19.144;2022-10-24T15:04:47;30.10;;;14.27;;
45618;SDS011;31343;47.520;19.144;2022-10-24T15:12:58;24.70;;;12.95;;
45618;SDS011;31343;47.520;19.144;2022-10-24T15:15:33;25.80;;;14.77;;
45618;SDS011;31343;47.520;19.144;2022-10-24T15:18:19;23.58;;;13.68;;
45618;SDS011;31343;47.520;19.144;2022-10-24T15:20:47;24.30;;;14.30;;
45618;SDS011;31343;47.520;19.144;2022-10-24T15:25:44;23.77;;;13.50;;
45618;SDS011;31343;47.520;19.144;2022-10-24T15:28:33;25.60;;;14.00;;
45618;SDS011;31343;47.520;19.144;2022-10-24T15:31:01;25.02;;;13.93;;
45618;SDS011;31343;47.520;19.144;2022-10-24T15:33:26;26.67;;;14.13;;
45618;SDS011;31343;47.520;19.144;2022-10-24T15:35:52;26.38;;;13.27;;
45618;SDS011;31343;47.520;19.144;2022-10-24T15:38:17;23.13;;;12.57;;
45618;SDS011;31343;47.520;19.144;2022-10-24T15:40:45;21.50;;;11.95;;
45618;SDS011;31343;47.520;19.144;2022-10-24T15:43:13;25.02;;;12.60;;
45618;SDS011;31343;47.520;19.144;2022-10-24T15:45:41;24.75;;;12.60;;
45618;SDS011;31343;47.520;19.144;2022-10-24T15:48:07;28.08;;;13.10;;
45618;SDS011;31343;47.520;19.144;2022-10-24T15:50:33;26.13;;;13.32;;
45618;SDS011;31343;47.520;19.144;2022-10-24T15:53:01;26.27;;;12.65;;
45618;SDS011;31343;47.520;19.144;2022-10-24T15:55:28;29.05;;;14.07;;
45618;SDS011;31343;47.520;19.144;2022-10-24T15:57:56;24.60;;;14.00;;
45618;SDS011;31343;47.520;19.144;2022-10-24T16:00:24;25.00;;;13.57;;
45618;SDS011;31343;47.520;19.144;2022-10-24T16:02:51;25.48;;;13.50;;
45618;SDS011;31343;47.520;19.144;2022-10-24T16:05:21;25.00;;;13.48;;
45618;SDS011;31343;47.520;19.144;2022-10-24T16:07:49;30.23;;;14.43;;
45618;SDS011;31343;47.520;19.144;2022-10-24T16:10:19;28.85;;;14.32;;
45618;SDS011;31343;47.520;19.144;2022-10-24T16:12:46;18.92;;;13.32;;
45618;SDS011;31343;47.520;19.144;2022-10-24T16:15:21;24.38;;;12.80;;
45618;SDS011;31343;47.520;19.144;2022-10-24T16:17:51;22.60;;;12.35;;
45618;SDS011;31343;47.520;19.144;2022-10-24T16:20:17;22.65;;;13.20;;
45618;SDS011;31343;47.520;19.144;2022-10-24T16:22:43;31.77;;;15.73;;
45618;SDS011;31343;47.520;19.144;2022-10-24T16:25:19;21.30;;;12.93;;
45618;SDS011;31343;47.520;19.144;2022-10-24T16:27:46;27.70;;;14.57;;
45618;SDS011;31343;47.520;19.144;2022-10-24T16:30:13;23.98;;;13.23;;
45618;SDS011;31343;47.520;19.144;2022-10-24T16:32:39;25.45;;;14.20;;
45618;SDS011;31343;47.520;19.144;2022-10-24T16:35:05;24.02;;;13.70;;
45618;SDS011;31343;47.520;19.144;2022-10-24T16:37:31;22.38;;;13.30;;
45618;SDS011;31343;47.520;19.144;2022-10-24T16:39:58;31.05;;;14.15;;
45618;SDS011;31343;47.520;19.144;2022-10-24T16:42:24;24.30;;;13.25;;
45618;SDS011;31343;47.520;19.144;2022-10-24T16:44:50;24.85;;;13.32;;
45618;SDS011;31343;47.520;19.144;2022-10-24T16:47:16;29.10;;;13.48;;
45618;SDS011;31343;47.520;19.144;2022-10-24T16:49:42;33.08;;;14.07;;
45618;SDS011;31343;47.520;19.144;2022-10-24T16:52:10;22.02;;;13.13;;
45618;SDS011;31343;47.520;19.144;2022-10-24T16:54:36;19.73;;;12.63;;
45618;SDS011;31343;47.520;19.144;2022-10-24T16:57:02;20.17;;;12.60;;
45618;SDS011;31343;47.520;19.144;2022-10-24T16:59:28;24.33;;;14.63;;
45618;SDS011;31343;47.520;19.144;2022-10-24T17:01:54;23.58;;;13.95;;
45618;SDS011;31343;47.520;19.144;2022-10-24T17:04:20;26.58;;;14.38;;
45618;SDS011;31343;47.520;19.144;2022-10-24T17:06:46;34.78;;;16.05;;
45618;SDS011;31343;47.520;19.144;2022-10-24T17:09:12;36.60;;;19.25;;
45618;SDS011;31343;47.520;19.144;2022-10-24T17:11:38;35.35;;;20.77;;
45618;SDS011;31343;47.520;19.144;2022-10-24T17:14:04;35.90;;;19.85;;
45618;SDS011;31343;47.520;19.144;2022-10-24T17:16:30;44.30;;;24.10;;
45618;SDS011;31343;47.520;19.144;2022-10-24T17:18:56;39.10;;;21.05;;